Time;durP1;ratioP1;P1;durP2;ratioP2;P2;SDS_P1;SDS_P2;PMS_P1;PMS_P2;Temp;Humidity;BMP_temperature;BMP_pressure;BME280_temperature;BME280_humidity;BME280_pressure;Samples;Min_cycle;Max_cycle;Signal;HPM_P1;HPM_P2
2022/01/14 00:01:48;;;;;;;26.10;17.73;;;;;;;0.77;100.00;101448.84;5074615;28;20206;-80
2022/01/14 00:04:15;;;;;;;25.70;17.35;;;;;;;0.88;100.00;101447.19;5075714;28;20550;-81
2022/01/14 00:06:43;;;;;;;29.83;18.50;;;;;;;0.79;100.00;101445.34;5073832;28;20192;-79
2022/01/14 00:09:11;;;;;;;26.88;18.70;;;;;;;0.82;100.00;101437.41;5068899;28;20610;-79
2022/01/14 00:11:41;;;;;;;34.05;20.48;;;;;;;0.68;100.00;101441.69;5073488;28;20253;-80
2022/01/14 00:14:19;;;;;;;29.10;19.42;;;;;;;0.66;100.00;101437.25;5068868;28;20548;-80
2022/01/14 00:16:47;;;;;;;29.70;19.50;;;;;;;0.59;100.00;101447.75;5073835;28;20194;-79
2022/01/14 00:19:14;;;;;;;28.33;19.85;;;;;;;0.49;100.00;101442.31;5075323;28;20227;-79
2022/01/14 00:21:42;;;;;;;29.98;20.13;;;;;;;0.48;100.00;101440.56;5074703;28;20310;-80
2022/01/14 00:24:14;;;;;;;26.33;19.98;;;;;;;0.49;100.00;101435.25;5074808;28;20241;-80
2022/01/14 00:32:10;;;;;;;32.15;21.42;;;;;;;0.69;100.00;101431.97;5045723;28;20199;-80
2022/01/14 00:34:36;;;;;;;37.72;21.88;;;;;;;0.64;100.00;101434.56;5074764;28;20211;-80
2022/01/14 00:37:04;;;;;;;30.13;20.30;;;;;;;0.69;100.00;101429.31;5073537;28;20230;-80
2022/01/14 00:39:32;;;;;;;34.45;20.85;;;;;;;0.70;100.00;101429.34;5073926;28;20974;-80
2022/01/14 00:41:59;;;;;;;30.50;18.77;;;;;;;0.94;100.00;101423.41;5075426;28;20959;-81
2022/01/14 00:44:26;;;;;;;30.98;19.95;;;;;;;0.82;100.00;101423.28;5074371;28;20325;-80
2022/01/14 00:46:53;;;;;;;27.95;18.60;;;;;;;1.09;100.00;101414.72;5075116;28;20271;-80
2022/01/14 00:49:21;;;;;;;32.70;19.33;;;;;;;1.09;100.00;101417.38;5074799;28;20527;-80
2022/01/14 00:51:48;;;;;;;27.40;17.85;;;;;;;1.11;100.00;101418.28;5067357;28;20197;-81
2022/01/14 00:54:17;;;;;;;30.15;19.17;;;;;;;1.21;100.00;101409.50;5074189;28;20197;-80
2022/01/14 00:56:49;;;;;;;29.92;19.17;;;;;;;1.02;100.00;101413.75;5074116;28;20630;-80
2022/01/14 00:59:16;;;;;;;27.20;17.75;;;;;;;1.03;100.00;101412.88;5074536;28;20204;-80
2022/01/14 01:01:45;;;;;;;26.90;17.48;;;;;;;0.66;100.00;101408.06;5073864;28;20204;-80
2022/01/14 01:04:14;;;;;;;24.95;17.80;;;;;;;0.45;100.00;101417.53;5073659;28;20288;-80
2022/01/14 01:06:41;;;;;;;27.85;18.15;;;;;;;0.34;100.00;101424.44;5066596;28;20225;-80
2022/01/14 01:09:11;;;;;;;32.42;21.40;;;;;;;0.36;100.00;101423.63;5071797;28;20190;-80
2022/01/14 01:11:42;;;;;;;29.08;19.55;;;;;;;0.52;100.00;101419.41;5073894;28;20192;-80
2022/01/14 01:14:14;;;;;;;29.75;18.85;;;;;;;0.73;100.00;101424.06;5073514;28;20192;-80
2022/01/14 01:16:41;;;;;;;29.45;18.88;;;;;;;0.76;100.00;101417.91;5066374;28;20191;-80
2022/01/14 01:19:07;;;;;;;29.85;19.02;;;;;;;0.70;100.00;101423.13;5073601;28;20275;-80
2022/01/14 01:21:34;;;;;;;34.50;19.17;;;;;;;0.69;100.00;101416.06;5065244;28;20194;-80
2022/01/14 01:24:01;;;;;;;26.92;19.70;;;;;;;0.79;100.00;101417.91;5073244;28;20225;-79
2022/01/14 01:26:31;;;;;;;27.77;18.63;;;;;;;0.81;100.00;101416.19;5068577;28;20294;-80
2022/01/14 01:29:27;;;;;;;26.63;18.77;;;;;;;0.72;100.00;101408.13;5073422;28;20204;-79
2022/01/14 01:31:53;;;;;;;30.58;18.95;;;;;;;0.59;100.00;101413.31;5067804;28;20199;-79
2022/01/14 01:34:24;;;;;;;28.50;19.60;;;;;;;0.40;100.00;101404.22;5072589;28;20277;-80
2022/01/14 01:36:53;;;;;;;29.45;19.52;;;;;;;0.41;100.00;101407.78;5072986;28;20228;-80
2022/01/14 01:39:22;;;;;;;31.95;20.23;;;;;;;0.37;100.00;101408.63;5067695;28;20209;-80
2022/01/14 01:41:52;;;;;;;28.27;18.63;;;;;;;0.33;100.00;101410.31;5074320;28;20193;-80
2022/01/14 01:44:21;;;;;;;34.25;20.77;;;;;;;0.19;100.00;101401.31;5073386;28;20674;-80
2022/01/14 01:46:48;;;;;;;27.63;19.45;;;;;;;0.23;100.00;101404.88;5074138;28;20187;-80
2022/01/14 01:49:19;;;;;;;30.05;19.08;;;;;;;0.27;100.00;101399.66;5073531;28;20250;-80
2022/01/14 01:51:48;;;;;;;34.40;23.15;;;;;;;0.30;100.00;101396.16;5072706;28;20195;-80
2022/01/14 01:54:15;;;;;;;33.15;20.15;;;;;;;0.23;100.00;101395.19;5073070;28;20595;-80
2022/01/14 01:56:42;;;;;;;31.80;21.45;;;;;;;0.13;100.00;101394.16;5072643;28;20198;-80
2022/01/14 01:59:10;;;;;;;34.58;21.67;;;;;;;0.15;100.00;101386.25;5072203;28;20313;-80
2022/01/14 02:01:38;;;;;;;33.58;21.67;;;;;;;0.22;100.00;101380.16;5072543;28;20200;-80
2022/01/14 02:04:05;;;;;;;30.70;20.33;;;;;;;0.37;100.00;101392.72;5072577;28;20310;-80
2022/01/14 02:06:33;;;;;;;38.17;22.42;;;;;;;0.28;100.00;101385.53;5072509;28;20192;-80
2022/01/14 02:09:00;;;;;;;30.63;19.60;;;;;;;0.14;100.00;101382.72;5071663;28;20697;-80
2022/01/14 02:11:27;;;;;;;31.08;20.92;;;;;;;0.13;100.00;101382.69;5066410;28;20228;-80
2022/01/14 02:13:57;;;;;;;32.40;21.80;;;;;;;0.23;100.00;101386.31;5073885;28;20203;-80
2022/01/14 02:16:33;;;;;;;37.00;21.35;;;;;;;0.22;100.00;101379.25;5073821;28;20276;-80
2022/01/14 02:19:14;;;;;;;28.80;19.17;;;;;;;0.08;100.00;101374.69;5073552;28;20191;-80
2022/01/14 02:24:55;;;;;;;30.23;19.25;;;;;;;0.12;100.00;101376.50;5072515;28;20300;-80
2022/01/14 02:27:22;;;;;;;28.30;18.52;;;;;;;0.16;100.00;101365.06;5065663;28;20192;-80
2022/01/14 02:29:49;;;;;;;30.23;19.55;;;;;;;0.34;100.00;101372.38;5072423;28;20196;-80
2022/01/14 02:32:15;;;;;;;33.80;20.52;;;;;;;0.15;100.00;101375.66;5064848;28;20299;-80
2022/01/14 02:34:42;;;;;;;29.95;18.80;;;;;;;0.10;100.00;101369.41;5072477;28;20184;-80
2022/01/14 02:37:10;;;;;;;34.08;20.08;;;;;;;0.36;100.00;101370.63;5072152;28;20195;-80
2022/01/14 02:39:37;;;;;;;33.00;20.65;;;;;;;0.34;100.00;101368.81;5071152;28;20235;-80
2022/01/14 02:42:04;;;;;;;30.55;19.65;;;;;;;0.40;100.00;101360.94;5076327;28;20728;-80
2022/01/14 02:44:32;;;;;;;30.90;20.65;;;;;;;0.73;100.00;101365.72;5076228;28;20724;-80
2022/01/14 02:47:04;;;;;;;32.70;19.67;;;;;;;0.76;100.00;101364.88;5076465;28;20248;-80
2022/01/14 02:49:33;;;;;;;29.73;19.58;;;;;;;0.83;100.00;101364.94;5070514;28;20223;-80
2022/01/14 02:52:03;;;;;;;33.53;19.85;;;;;;;0.87;100.00;101352.59;5075390;28;20642;-80
2022/01/14 02:54:40;;;;;;;29.13;19.13;;;;;;;0.83;100.00;101350.78;5076238;28;20202;-80
2022/01/14 02:57:09;;;;;;;36.15;19.77;;;;;;;0.36;100.00;101353.81;5076531;28;20188;-81
2022/01/14 02:59:38;;;;;;;31.67;20.25;;;;;;;0.10;100.00;101359.69;5076161;28;20198;-79
2022/01/14 03:02:08;;;;;;;27.50;19.00;;;;;;;-0.10;100.00;101358.53;5076140;28;20202;-81
2022/01/14 03:04:39;;;;;;;30.73;19.00;;;;;;;0.12;100.00;101355.31;5076358;28;20215;-81
2022/01/14 03:07:07;;;;;;;31.40;20.65;;;;;;;0.13;100.00;101351.78;5068338;28;20214;-81
2022/01/14 03:09:36;;;;;;;32.53;19.92;;;;;;;-0.07;100.00;101345.34;5075797;28;20274;-81
2022/01/14 03:12:03;;;;;;;30.90;19.23;;;;;;;-0.09;100.00;101349.72;5069934;28;20231;-81
2022/01/14 03:14:30;;;;;;;29.23;18.50;;;;;;;-0.10;100.00;101348.84;5075864;28;20223;-81
2022/01/14 03:17:00;;;;;;;31.63;20.30;;;;;;;-0.02;100.00;101341.00;5075801;28;20245;-81
2022/01/14 03:19:27;;;;;;;29.80;20.65;;;;;;;0.12;100.00;101343.81;5075669;28;20200;-81
2022/01/14 03:22:05;;;;;;;30.05;19.77;;;;;;;0.34;100.00;101337.00;5076068;28;20196;-81
2022/01/14 03:27:14;;;;;;;25.85;16.23;;;;;;;0.21;100.00;101336.00;5069638;28;20261;-81
2022/01/14 03:29:41;;;;;;;26.20;18.80;;;;;;;0.20;100.00;101327.16;5075643;28;20214;-81
2022/01/14 03:32:08;;;;;;;27.30;17.73;;;;;;;0.12;100.00;101327.94;5075598;28;20721;-81
2022/01/14 03:34:36;;;;;;;29.95;17.38;;;;;;;0.24;100.00;101332.47;5075316;28;20202;-81
2022/01/14 03:37:03;;;;;;;31.52;17.50;;;;;;;0.37;100.00;101323.81;5075637;28;20194;-81
2022/01/14 03:39:29;;;;;;;27.52;17.25;;;;;;;0.28;100.00;101329.00;5075626;28;20665;-81
2022/01/14 03:41:56;;;;;;;25.08;17.50;;;;;;;0.24;100.00;101327.19;5072055;28;20714;-81
2022/01/14 03:44:24;;;;;;;28.92;17.77;;;;;;;0.20;100.00;101327.16;5075219;28;20728;-81
2022/01/14 03:46:51;;;;;;;26.35;17.27;;;;;;;0.09;100.00;101328.78;5075811;28;20234;-80
2022/01/14 03:49:18;;;;;;;24.23;15.93;;;;;;;0.09;100.00;101333.19;5075528;28;20199;-81
2022/01/14 03:51:44;;;;;;;31.15;18.23;;;;;;;0.14;100.00;101334.16;5075313;28;20197;-81
2022/01/14 03:54:11;;;;;;;27.52;17.98;;;;;;;0.14;100.00;101331.50;5075665;28;20275;-80
2022/01/14 03:56:38;;;;;;;23.30;15.30;;;;;;;0.17;100.00;101337.69;5075272;28;20288;-81
2022/01/14 03:59:04;;;;;;;42.53;21.70;;;;;;;0.39;100.00;101338.84;5075090;28;20229;-81
2022/01/14 04:01:32;;;;;;;30.02;18.05;;;;;;;0.37;100.00;101337.94;5075426;28;20218;-81
2022/01/14 04:03:59;;;;;;;30.05;19.10;;;;;;;0.30;100.00;101333.44;5075971;28;20289;-81
2022/01/14 04:06:27;;;;;;;25.55;17.13;;;;;;;0.19;100.00;101330.66;5075951;28;20681;-81
2022/01/14 04:08:54;;;;;;;25.83;17.77;;;;;;;0.34;100.00;101332.63;5075476;28;20188;-81
2022/01/14 04:11:22;;;;;;;27.92;17.80;;;;;;;0.28;100.00;101334.31;5072998;28;20205;-81
2022/01/14 04:13:52;;;;;;;27.95;17.48;;;;;;;0.42;100.00;101332.69;5076178;28;20198;-81
2022/01/14 04:16:19;;;;;;;27.58;18.75;;;;;;;0.52;100.00;101326.63;5075694;28;20196;-81
2022/01/14 04:18:49;;;;;;;27.67;16.95;;;;;;;0.47;100.00;101320.38;5075350;28;20242;-81
2022/01/14 04:21:16;;;;;;;29.50;19.48;;;;;;;0.52;100.00;101317.75;5075139;28;20630;-81
2022/01/14 04:23:43;;;;;;;33.10;18.42;;;;;;;0.45;100.00;101323.88;5067552;28;20271;-81
2022/01/14 04:26:10;;;;;;;31.70;19.52;;;;;;;0.33;100.00;101319.34;5075972;28;20682;-81
2022/01/14 04:28:37;;;;;;;28.98;18.42;;;;;;;0.02;100.00;101321.63;5075765;28;20265;-81
2022/01/14 04:31:05;;;;;;;32.22;19.23;;;;;;;-0.08;100.00;101315.31;5074591;28;20229;-81
2022/01/14 04:33:33;;;;;;;31.25;19.08;;;;;;;-0.25;100.00;101312.47;5074349;28;20194;-81
2022/01/14 04:36:02;;;;;;;28.98;19.08;;;;;;;-0.23;100.00;101309.81;5074711;28;20193;-81
2022/01/14 04:38:30;;;;;;;39.38;17.55;;;;;;;-0.31;100.00;101314.13;5074517;28;20224;-81
2022/01/14 04:40:57;;;;;;;32.08;18.70;;;;;;;-0.29;100.00;101315.06;5068601;28;20191;-81
2022/01/14 04:43:24;;;;;;;28.77;18.20;;;;;;;-0.22;100.00;101306.31;5073525;28;20721;-81
2022/01/14 04:46:13;;;;;;;29.83;18.88;;;;;;;-0.18;100.00;101307.22;5071058;28;20231;-80
2022/01/14 04:48:39;;;;;;;27.15;18.20;;;;;;;-0.13;100.00;101305.56;5074924;28;20274;-81
2022/01/14 04:51:09;;;;;;;33.17;19.95;;;;;;;-0.02;100.00;101303.94;5073792;28;20219;-81
2022/01/14 04:53:36;;;;;;;29.20;18.25;;;;;;;-0.17;100.00;101309.03;5066994;28;20223;-81
2022/01/14 04:56:04;;;;;;;25.05;16.13;;;;;;;-0.34;100.00;101314.06;5073961;28;20190;-80
2022/01/14 04:58:31;;;;;;;27.83;17.05;;;;;;;-0.10;100.00;101316.19;5073708;28;21047;-81
2022/01/14 05:00:57;;;;;;;24.92;16.00;;;;;;;0.05;100.00;101321.66;5073833;28;20253;-81
2022/01/14 05:03:24;;;;;;;24.85;15.88;;;;;;;0.12;100.00;101320.00;5074130;28;20192;-81
2022/01/14 05:05:55;;;;;;;24.25;17.27;;;;;;;0.15;100.00;101310.28;5074923;28;20527;-81
2022/01/14 05:08:31;;;;;;;27.52;17.85;;;;;;;-0.09;100.00;101300.31;5075078;28;20196;-81
2022/01/14 05:11:14;;;;;;;27.73;17.40;;;;;;;-0.04;100.00;101300.38;5071348;28;20802;-81
2022/01/14 05:13:41;;;;;;;21.52;15.32;;;;;;;-0.08;100.00;101301.19;5070504;28;20206;-81
2022/01/14 05:16:07;;;;;;;28.13;16.48;;;;;;;-0.20;100.00;101291.34;5073721;28;20291;-81
2022/01/14 05:18:37;;;;;;;27.27;16.10;;;;;;;-0.04;100.00;101300.38;5073602;28;20199;-81
2022/01/14 05:21:04;;;;;;;32.67;18.73;;;;;;;-0.22;100.00;101307.19;5073396;28;20187;-81
2022/01/14 05:23:32;;;;;;;27.77;18.35;;;;;;;-0.22;100.00;101298.38;5073771;28;20188;-81
2022/01/14 05:25:59;;;;;;;30.73;19.05;;;;;;;-0.08;100.00;101306.50;5073091;28;20224;-79
2022/01/14 05:28:25;;;;;;;30.23;19.15;;;;;;;-0.07;100.00;101305.59;5073197;28;20281;-79
2022/01/14 05:30:52;;;;;;;27.90;18.17;;;;;;;0.02;100.00;101308.38;5073261;28;20199;-81
2022/01/14 05:33:19;;;;;;;26.13;19.05;;;;;;;-0.23;100.00;101300.13;5073752;28;20281;-81
2022/01/14 05:35:45;;;;;;;26.20;18.77;;;;;;;-0.26;100.00;101299.19;5074216;28;20226;-81
2022/01/14 05:38:12;;;;;;;32.20;18.75;;;;;;;-0.18;100.00;101301.94;5074659;28;20187;-80
2022/01/14 05:40:40;;;;;;;32.47;18.65;;;;;;;-0.29;100.00;101304.47;5074146;28;20265;-80
2022/01/14 05:43:07;;;;;;;28.13;20.42;;;;;;;-0.24;100.00;101306.28;5068237;28;20261;-80
2022/01/14 05:45:34;;;;;;;32.80;18.95;;;;;;;-0.45;100.00;101306.00;5073435;28;20306;-80
2022/01/14 05:48:00;;;;;;;29.52;19.15;;;;;;;-0.43;100.00;101309.53;5072893;28;20279;-80
2022/01/14 05:50:27;;;;;;;29.15;20.08;;;;;;;-0.45;100.00;101311.31;5072905;28;20286;-80
2022/01/14 05:52:54;;;;;;;35.42;19.85;;;;;;;-0.33;100.00;101316.75;5072132;28;20278;-80
2022/01/14 05:55:22;;;;;;;32.28;21.65;;;;;;;-0.06;100.00;101323.28;5072909;28;20548;-80
2022/01/14 05:57:50;;;;;;;26.30;17.63;;;;;;;-0.04;100.00;101316.25;5072640;28;20325;-79
2022/01/14 06:00:19;;;;;;;36.65;18.75;;;;;;;0.13;100.00;101317.34;5072680;28;20221;-80
2022/01/14 06:02:49;;;;;;;30.88;18.30;;;;;;;-0.04;100.00;101321.56;5072960;28;20287;-81
2022/01/14 06:05:17;;;;;;;34.28;20.00;;;;;;;-0.02;100.00;101322.47;5066221;28;20619;-81
2022/01/14 06:07:43;;;;;;;28.25;18.27;;;;;;;0.10;100.00;101316.44;5073427;28;20195;-80
2022/01/14 06:10:11;;;;;;;26.08;16.92;;;;;;;0.19;100.00;101316.53;5072300;28;20195;-79
2022/01/14 06:12:38;;;;;;;24.35;16.85;;;;;;;0.36;100.00;101312.31;5065569;28;20273;-81
2022/01/14 06:15:07;;;;;;;25.55;15.38;;;;;;;0.47;100.00;101322.13;5071822;28;20558;-81
2022/01/14 06:17:34;;;;;;;24.00;15.10;;;;;;;0.25;100.00;101318.34;5073725;28;20199;-77
2022/01/14 06:20:03;;;;;;;22.70;14.38;;;;;;;0.28;100.00;101315.75;5071965;28;20275;-80
2022/01/14 06:22:29;;;;;;;22.10;14.52;;;;;;;0.14;100.00;101320.91;5072101;28;20231;-80
2022/01/14 06:24:57;;;;;;;20.38;14.00;;;;;;;0.17;100.00;101313.84;5071347;28;20288;-80
2022/01/14 06:27:24;;;;;;;24.02;13.98;;;;;;;0.23;100.00;101310.41;5073129;28;20289;-80
2022/01/14 06:29:50;;;;;;;18.95;13.23;;;;;;;0.20;100.00;101313.91;5072161;28;20278;-80
2022/01/14 06:32:18;;;;;;;21.70;14.20;;;;;;;0.33;100.00;101306.09;5071860;28;20289;-81
2022/01/14 06:34:45;;;;;;;20.38;12.45;;;;;;;0.27;100.00;101311.31;5073428;28;20244;-80
2022/01/14 06:37:43;;;;;;;21.55;14.40;;;;;;;0.28;100.00;101298.09;5072832;28;20188;-82
2022/01/14 06:40:11;;;;;;;22.42;14.90;;;;;;;0.35;100.00;101294.63;5073220;28;20236;-81
2022/01/14 06:42:39;;;;;;;25.27;16.00;;;;;;;0.33;100.00;101291.06;5075705;28;20641;-82
2022/01/14 06:45:10;;;;;;;18.75;13.23;;;;;;;0.13;100.00;101288.19;5082134;28;20247;-79
2022/01/14 06:47:38;;;;;;;24.95;13.88;;;;;;;0.05;100.00;101303.13;5086883;28;20175;-80
2022/01/14 06:50:05;;;;;;;23.40;15.93;;;;;;;0.28;100.00;101297.22;5084238;28;20603;-80
2022/01/14 06:52:32;;;;;;;23.67;13.98;;;;;;;0.17;100.00;101297.97;5082589;28;20637;-81
2022/01/14 06:55:01;;;;;;;17.15;12.65;;;;;;;0.09;100.00;101304.94;5090897;28;20207;-80
2022/01/14 06:57:27;;;;;;;22.70;13.95;;;;;;;-0.15;100.00;101299.34;5084907;28;20687;-81
2022/01/14 06:59:54;;;;;;;23.13;14.77;;;;;;;-0.19;100.00;101297.53;5083770;28;20262;-81
2022/01/14 07:02:21;;;;;;;20.95;13.98;;;;;;;-0.12;100.00;101302.03;5073583;28;20256;-80
2022/01/14 07:04:49;;;;;;;22.83;15.32;;;;;;;0.01;100.00;101301.31;5087847;28;20226;-80
2022/01/14 07:07:16;;;;;;;22.13;15.35;;;;;;;-0.13;100.00;101301.13;5085502;28;20264;-79
2022/01/14 07:09:56;;;;;;;23.58;14.77;;;;;;;0.00;100.00;101299.53;5087257;28;20351;-80
2022/01/14 07:12:24;;;;;;;25.90;16.77;;;;;;;0.06;100.00;101307.53;5074679;28;20534;-79
2022/01/14 07:14:51;;;;;;;25.95;17.33;;;;;;;-0.16;100.00;101305.50;5053527;28;20203;-80
2022/01/14 07:17:17;;;;;;;25.98;18.13;;;;;;;-0.01;100.00;101308.34;5055319;28;20627;-79
2022/01/14 07:19:46;;;;;;;29.30;17.27;;;;;;;0.22;100.00;101299.78;5056944;28;20600;-79
2022/01/14 07:22:14;;;;;;;27.15;16.20;;;;;;;0.17;100.00;101308.56;5054741;28;20201;-80
2022/01/14 07:24:41;;;;;;;28.13;17.25;;;;;;;0.14;100.00;101313.84;5059997;28;20212;-79
2022/01/14 07:27:08;;;;;;;29.65;17.92;;;;;;;0.13;100.00;101317.34;5064403;28;20232;-79
2022/01/14 07:29:34;;;;;;;23.08;16.58;;;;;;;0.08;100.00;101315.50;5067974;28;20187;-79
2022/01/14 07:32:01;;;;;;;22.35;16.63;;;;;;;-0.06;100.00;101318.00;5056258;28;20291;-80
2022/01/14 07:34:28;;;;;;;23.80;16.10;;;;;;;-0.06;100.00;101320.66;5055290;28;20208;-80
2022/01/14 07:36:55;;;;;;;29.80;17.17;;;;;;;-0.16;100.00;101330.19;5060803;28;20200;-79
2022/01/14 07:39:23;;;;;;;26.42;15.93;;;;;;;-0.18;100.00;101336.34;5060259;28;20211;-78
2022/01/14 07:41:50;;;;;;;24.98;16.65;;;;;;;-0.30;100.00;101329.13;5071976;28;20282;-81
2022/01/14 07:44:17;;;;;;;27.63;17.13;;;;;;;-0.16;100.00;101337.25;5061806;28;20291;-80
2022/01/14 07:46:47;;;;;;;29.50;18.67;;;;;;;-0.04;100.00;101329.50;5059219;28;20242;-80
2022/01/14 07:49:14;;;;;;;30.20;19.27;;;;;;;0.16;100.00;101329.75;5055457;28;20199;-81
2022/01/14 07:51:41;;;;;;;27.58;17.23;;;;;;;0.22;100.00;101328.94;5056966;28;20234;-80
2022/01/14 07:54:09;;;;;;;27.70;18.45;;;;;;;0.35;100.00;101329.06;5062954;28;20237;-82
2022/01/14 07:56:39;;;;;;;30.00;17.98;;;;;;;0.23;100.00;101321.00;5064746;28;20231;-80
2022/01/14 07:59:07;;;;;;;27.10;16.20;;;;;;;0.13;100.00;101327.94;5059358;28;20683;-79
2022/01/14 08:01:37;;;;;;;28.88;17.33;;;;;;;0.04;100.00;101322.53;5054268;28;20197;-79
2022/01/14 08:04:05;;;;;;;25.92;18.20;;;;;;;0.07;100.00;101324.31;5055030;28;20698;-79
2022/01/14 08:06:33;;;;;;;28.38;18.80;;;;;;;0.23;100.00;101321.00;5060942;28;20702;-79
2022/01/14 08:09:01;;;;;;;27.10;19.23;;;;;;;0.43;100.00;101323.88;5076274;28;20203;-84
2022/01/14 08:11:28;;;;;;;26.67;18.90;;;;;;;0.46;100.00;101328.31;5074435;28;20200;-79
2022/01/14 08:13:56;;;;;;;27.75;20.58;;;;;;;0.61;100.00;101323.16;5074950;28;20291;-78
2022/01/14 08:16:23;;;;;;;31.83;20.60;;;;;;;0.26;100.00;101328.09;5075477;28;20195;-81
2022/01/14 08:18:49;;;;;;;32.35;20.73;;;;;;;0.30;100.00;101322.84;5076794;28;20211;-80
2022/01/14 08:21:16;;;;;;;29.02;19.15;;;;;;;0.17;100.00;101327.09;5072761;28;20286;-78
2022/01/14 08:23:43;;;;;;;30.10;21.05;;;;;;;0.26;100.00;101309.53;5070764;28;20227;-80
2022/01/14 08:26:10;;;;;;;32.05;21.73;;;;;;;0.20;100.00;101313.91;5072543;28;20210;-80
2022/01/14 08:28:37;;;;;;;29.48;19.80;;;;;;;0.24;100.00;101309.53;5078953;28;20204;-79
2022/01/14 08:31:05;;;;;;;25.70;18.23;;;;;;;0.28;100.00;101314.00;5076516;28;20270;-80
2022/01/14 08:33:32;;;;;;;26.73;18.60;;;;;;;0.30;100.00;101314.00;5081468;28;20294;-79
2022/01/14 08:35:59;;;;;;;24.90;17.17;;;;;;;0.11;100.00;101319.06;5078393;28;20222;-78
2022/01/14 08:38:26;;;;;;;31.35;18.30;;;;;;;0.50;100.00;101323.06;5073961;28;20537;-79
2022/01/14 08:40:55;;;;;;;34.22;21.83;;;;;;;0.66;100.00;101310.84;5074475;28;20498;-80
2022/01/14 08:43:22;;;;;;;25.90;17.10;;;;;;;0.51;100.00;101310.69;5069038;28;20208;-80
2022/01/14 08:45:49;;;;;;;26.92;18.77;;;;;;;0.50;100.00;101325.72;5054544;28;20224;-81
2022/01/14 08:48:18;;;;;;;30.80;20.10;;;;;;;0.67;100.00;101317.94;5054570;28;20297;-79
2022/01/14 08:50:45;;;;;;;29.45;19.08;;;;;;;0.78;100.00;101310.06;5056313;28;20240;-81
2022/01/14 08:53:14;;;;;;;27.20;18.80;;;;;;;0.76;100.00;101309.16;5065911;28;20285;-79
2022/01/14 08:55:41;;;;;;;24.60;18.27;;;;;;;0.72;100.00;101310.00;5074999;28;20212;-80
2022/01/14 08:58:09;;;;;;;29.30;19.63;;;;;;;0.56;100.00;101306.31;5074650;28;20244;-79
2022/01/14 09:00:36;;;;;;;27.40;19.58;;;;;;;0.79;100.00;101304.81;5075724;28;20285;-80
2022/01/14 09:03:04;;;;;;;25.55;18.58;;;;;;;0.92;100.00;101307.53;5074628;28;20188;-81
2022/01/14 09:05:33;;;;;;;29.83;19.00;;;;;;;0.92;100.00;101303.13;5073485;28;20224;-78
2022/01/14 09:08:03;;;;;;;27.33;19.17;;;;;;;1.10;100.00;101301.50;5073681;28;20240;-79
2022/01/14 09:10:30;;;;;;;25.50;18.70;;;;;;;1.18;100.00;101303.34;5073959;28;20260;-78
2022/01/14 09:12:56;;;;;;;27.00;18.67;;;;;;;1.24;100.00;101307.78;5069551;28;20251;-79
2022/01/14 09:15:23;;;;;;;25.30;18.10;;;;;;;1.24;100.00;101313.09;5074042;28;20235;-79
2022/01/14 09:17:50;;;;;;;29.23;19.25;;;;;;;1.28;100.00;101309.59;5073823;28;20539;-81
2022/01/14 09:20:18;;;;;;;26.90;18.75;;;;;;;1.45;100.00;101315.03;5073922;28;20315;-80
2022/01/14 09:22:49;;;;;;;26.25;17.48;;;;;;;1.69;100.00;101321.38;5072880;28;20281;-79
2022/01/14 09:25:17;;;;;;;23.98;17.60;;;;;;;1.72;100.00;101313.41;5074451;28;20217;-79
2022/01/14 09:27:44;;;;;;;26.02;17.88;;;;;;;1.80;100.00;101311.69;5073622;28;20228;-79
2022/01/14 09:30:12;;;;;;;27.98;18.50;;;;;;;2.35;100.00;101306.59;5073417;28;20188;-78
2022/01/14 09:32:39;;;;;;;22.88;16.48;;;;;;;2.75;100.00;101305.78;5073055;28;20205;-79
2022/01/14 09:35:07;;;;;;;27.70;17.92;;;;;;;3.27;100.00;101313.78;5065233;28;20255;-80
2022/01/14 09:37:35;;;;;;;28.58;19.38;;;;;;;3.17;100.00;101306.72;5053008;28;20317;-80
2022/01/14 09:40:04;;;;;;;27.08;18.58;;;;;;;3.54;100.00;101311.06;5054608;28;20208;-80
2022/01/14 09:42:31;;;;;;;25.70;18.60;;;;;;;3.47;100.00;101309.31;5053695;28;20236;-80
2022/01/14 09:44:59;;;;;;;27.92;18.35;;;;;;;3.72;100.00;101301.28;5053387;28;20197;-81
2022/01/14 09:47:26;;;;;;;26.80;18.88;;;;;;;3.64;100.00;101300.41;5057644;28;20660;-79
2022/01/14 09:49:53;;;;;;;24.48;17.45;;;;;;;3.62;100.00;101291.53;5057525;28;20212;-79
2022/01/14 09:52:20;;;;;;;35.28;17.90;;;;;;;3.37;100.00;101310.25;5059646;28;20202;-79
2022/01/14 09:54:50;;;;;;;25.00;18.45;;;;;;;3.12;100.00;101304.00;5065083;28;20208;-78
2022/01/14 09:57:19;;;;;;;26.67;17.60;;;;;;;2.93;100.00;101308.47;5072887;28;20240;-80
2022/01/14 09:59:47;;;;;;;30.17;21.17;;;;;;;3.33;100.00;101308.47;5072958;28;20590;-79
2022/01/14 10:02:29;;;;;;;31.88;21.83;;;;;;;3.73;100.00;101303.03;5072635;28;20662;-80
2022/01/14 10:04:56;;;;;;;35.85;20.80;;;;;;;3.85;100.00;101305.69;5071715;28;20572;-80
2022/01/14 10:07:23;;;;;;;32.53;21.90;;;;;;;3.96;100.00;101301.19;5070451;28;20617;-79
2022/01/14 10:09:55;;;;;;;26.52;18.88;;;;;;;4.04;100.00;101303.81;5056549;28;20248;-79
2022/01/14 10:12:24;;;;;;;26.75;18.42;;;;;;;3.91;100.00;101312.75;5052218;28;20288;-80
2022/01/14 10:14:56;;;;;;;30.05;20.17;;;;;;;4.05;100.00;101312.69;5060731;28;20301;-80
2022/01/14 10:17:24;;;;;;;29.63;21.08;;;;;;;4.17;100.00;101315.34;5072989;28;20993;-79
2022/01/14 10:19:51;;;;;;;31.13;22.15;;;;;;;4.12;100.00;101306.47;5072629;28;20228;-80
2022/01/14 10:22:23;;;;;;;32.28;19.80;;;;;;;4.25;100.00;101302.88;5071830;28;20240;-81
2022/01/14 10:24:58;;;;;;;29.38;20.75;;;;;;;4.28;100.00;101294.84;5072130;28;20642;-80
2022/01/14 10:27:45;;;;;;;31.10;19.70;;;;;;;4.45;100.00;101294.72;5072337;28;20220;-80
2022/01/14 10:30:16;;;;;;;25.45;19.25;;;;;;;4.74;97.12;101294.53;5072897;28;20205;-82
2022/01/14 10:32:45;;;;;;;28.20;19.25;;;;;;;4.95;94.99;101287.25;5072947;28;20561;-80
2022/01/14 10:35:14;;;;;;;29.60;19.25;;;;;;;4.91;95.21;101282.88;5072174;28;20259;-81
2022/01/14 10:37:41;;;;;;;31.13;20.50;;;;;;;4.92;96.45;101279.28;5072251;28;20186;-80
2022/01/14 10:40:15;;;;;;;32.30;20.42;;;;;;;5.05;95.98;101278.28;5060326;28;20209;-78
2022/01/14 10:42:45;;;;;;;28.80;19.05;;;;;;;5.37;93.43;101267.28;5053080;28;20509;-80
2022/01/14 10:45:22;;;;;;;29.08;18.63;;;;;;;5.30;92.47;101268.25;5052396;28;20208;-82
2022/01/14 10:48:04;;;;;;;24.73;17.73;;;;;;;5.44;92.93;101266.31;5053256;28;20205;-81
2022/01/14 10:50:38;;;;;;;26.33;17.80;;;;;;;5.70;90.73;101269.63;5053881;28;20558;-81
2022/01/14 10:53:11;;;;;;;32.60;19.92;;;;;;;5.68;91.11;101266.97;5052604;28;20201;-78
2022/01/14 10:55:41;;;;;;;23.77;17.70;;;;;;;5.75;90.67;101259.78;5052462;28;20194;-80
2022/01/14 10:58:15;;;;;;;24.48;18.58;;;;;;;5.73;91.21;101253.56;5051924;28;20234;-79
2022/01/14 11:00:44;;;;;;;31.73;20.17;;;;;;;5.56;92.20;101249.31;5053411;28;20252;-81
2022/01/14 11:03:11;;;;;;;30.10;18.48;;;;;;;5.47;92.85;101259.19;5056289;28;20359;-80
2022/01/14 11:05:38;;;;;;;27.52;18.23;;;;;;;5.17;93.95;101255.94;5055956;28;20754;-80
2022/01/14 11:08:06;;;;;;;28.48;18.75;;;;;;;5.29;94.44;101255.81;5056193;28;20264;-82
2022/01/14 11:10:34;;;;;;;25.15;17.50;;;;;;;5.28;94.20;101250.50;5058510;28;20206;-80
2022/01/14 11:13:02;;;;;;;28.38;18.88;;;;;;;5.51;93.41;101243.09;5056514;28;20213;-78
2022/01/14 11:15:32;;;;;;;27.38;17.65;;;;;;;5.66;92.24;101233.16;5056198;28;20204;-80
2022/01/14 11:18:05;;;;;;;26.45;18.85;;;;;;;5.91;91.91;101231.94;5067352;28;20605;-79
2022/01/14 11:20:37;;;;;;;25.00;15.80;;;;;;;6.21;89.42;101232.47;5075989;28;20197;-78
2022/01/14 11:23:15;;;;;;;20.08;15.02;;;;;;;6.21;88.33;101219.09;5075510;28;20655;-79
2022/01/14 11:25:49;;;;;;;23.25;16.13;;;;;;;5.80;90.36;101236.53;5055742;28;20291;-79
2022/01/14 11:28:20;;;;;;;23.85;15.13;;;;;;;5.85;90.85;101229.34;5056542;28;20198;-79